Time;durP1;ratioP1;P1;durP2;ratioP2;P2;SDS_P1;SDS_P2;PMS_P1;PMS_P2;Temp;Humidity;BMP_temperature;BMP_pressure;BME280_temperature;BME280_humidity;BME280_pressure;Samples;Min_cycle;Max_cycle;Signal;HPM_P1;HPM_P2
2023/06/16 00:01:05;;;;;;;8.50;5.00;;;20.60;50.20;;;;;;5073504;28;20476;-56
2023/06/16 00:03:34;;;;;;;6.93;4.60;;;20.60;50.40;;;;;;5073514;28;20792;-56
2023/06/16 00:06:12;;;;;;;7.30;5.53;;;20.50;50.50;;;;;;5073005;28;20950;-56
2023/06/16 00:08:39;;;;;;;4.93;4.53;;;20.50;50.50;;;;;;5073297;28;20433;-56
2023/06/16 00:11:06;;;;;;;5.50;4.90;;;20.50;50.50;;;;;;5073363;28;20852;-56
2023/06/16 00:13:32;;;;;;;6.40;4.70;;;20.40;50.80;;;;;;5073084;28;20456;-56
2023/06/16 00:15:59;;;;;;;11.03;4.97;;;20.40;51.00;;;;;;5073021;28;20461;-56
2023/06/16 00:18:28;;;;;;;8.97;4.80;;;20.30;51.20;;;;;;5073205;28;20480;-56
2023/06/16 00:20:54;;;;;;;5.83;4.27;;;20.30;51.30;;;;;;5073127;28;20445;-56
2023/06/16 00:23:22;;;;;;;9.60;5.20;;;20.30;51.50;;;;;;5073187;28;20437;-56
2023/06/16 00:25:49;;;;;;;6.77;4.97;;;20.20;51.30;;;;;;5073603;28;20491;-56
2023/06/16 00:28:15;;;;;;;11.13;4.80;;;20.10;51.30;;;;;;5073221;28;20445;-56
2023/06/16 00:30:44;;;;;;;6.53;4.47;;;20.10;51.50;;;;;;5073122;28;20445;-56
2023/06/16 00:33:12;;;;;;;5.00;4.50;;;20.00;51.50;;;;;;5073140;28;20449;-56
2023/06/16 00:35:40;;;;;;;6.80;5.00;;;20.00;51.60;;;;;;5072810;28;20843;-56
2023/06/16 00:38:07;;;;;;;5.40;5.00;;;19.90;51.70;;;;;;5072917;28;20570;-56
2023/06/16 00:40:34;;;;;;;9.27;5.17;;;19.90;51.60;;;;;;5072823;28;20969;-56
2023/06/16 00:43:02;;;;;;;4.73;4.23;;;19.80;51.60;;;;;;5073052;28;20448;-56
2023/06/16 00:45:28;;;;;;;8.07;5.13;;;19.70;51.50;;;;;;5073094;28;20490;-56
2023/06/16 00:47:55;;;;;;;7.47;5.97;;;19.60;51.40;;;;;;5072894;28;20476;-56
2023/06/16 00:50:23;;;;;;;5.70;5.20;;;19.60;51.40;;;;;;5072703;28;20445;-56
2023/06/16 00:52:51;;;;;;;9.17;5.70;;;19.50;51.50;;;;;;5072651;28;20954;-56
2023/06/16 00:55:21;;;;;;;6.10;5.00;;;19.50;51.80;;;;;;5072955;28;20448;-56
2023/06/16 00:57:49;;;;;;;6.13;5.53;;;19.40;52.00;;;;;;5072784;28;20492;-56
2023/06/16 01:00:16;;;;;;;6.50;4.80;;;19.50;52.20;;;;;;5072848;28;20482;-55
2023/06/16 01:02:44;;;;;;;6.13;5.53;;;19.40;52.20;;;;;;5073864;28;20861;-56
2023/06/16 01:05:16;;;;;;;9.33;5.23;;;19.40;52.30;;;;;;5076377;28;20927;-56
2023/06/16 01:07:48;;;;;;;5.63;5.20;;;19.30;52.40;;;;;;5076849;28;20461;-56
2023/06/16 01:10:20;;;;;;;6.43;5.17;;;19.30;52.50;;;;;;5076851;28;20428;-56
2023/06/16 01:12:54;;;;;;;8.70;6.17;;;19.30;52.50;;;;;;5076564;28;20921;-56
2023/06/16 01:15:23;;;;;;;5.50;5.00;;;19.30;52.70;;;;;;5076307;28;20903;-57
2023/06/16 01:17:53;;;;;;;4.87;4.20;;;19.30;53.00;;;;;;5076269;28;20488;-56
2023/06/16 01:20:28;;;;;;;5.60;5.00;;;19.30;53.10;;;;;;5076490;28;20490;-56
2023/06/16 01:23:02;;;;;;;9.90;5.93;;;19.20;53.20;;;;;;5076313;28;20482;-56
2023/06/16 01:25:32;;;;;;;8.67;5.57;;;19.20;53.40;;;;;;5076350;28;20433;-56
2023/06/16 01:28:03;;;;;;;7.00;5.40;;;19.10;53.40;;;;;;5076091;28;20468;-56
2023/06/16 01:30:32;;;;;;;5.67;4.70;;;19.10;53.60;;;;;;5075885;28;20433;-56
2023/06/16 01:33:00;;;;;;;7.50;5.60;;;19.00;53.70;;;;;;5076033;28;20449;-56
2023/06/16 01:35:28;;;;;;;5.90;5.30;;;19.00;53.80;;;;;;5076059;28;20455;-56
2023/06/16 01:37:56;;;;;;;6.07;5.37;;;19.00;53.80;;;;;;5078921;28;20488;-56
2023/06/16 01:40:24;;;;;;;5.17;4.67;;;18.90;53.90;;;;;;5080854;28;20445;-55
2023/06/16 01:42:53;;;;;;;7.63;4.77;;;18.90;54.00;;;;;;5081234;28;20932;-56
2023/06/16 01:45:21;;;;;;;6.93;4.53;;;18.90;54.10;;;;;;5076637;28;20476;-56
2023/06/16 01:47:48;;;;;;;8.23;5.13;;;18.80;54.10;;;;;;5075738;28;21020;-56
2023/06/16 01:50:15;;;;;;;5.20;4.77;;;18.80;54.30;;;;;;5075636;28;20954;-55
2023/06/16 01:52:42;;;;;;;7.83;4.80;;;18.70;54.20;;;;;;5075416;28;20873;-55
2023/06/16 01:55:09;;;;;;;6.50;5.77;;;18.70;54.50;;;;;;5075792;28;20463;-56
2023/06/16 01:57:36;;;;;;;7.80;4.90;;;18.60;54.30;;;;;;5075528;28;20480;-55
2023/06/16 02:00:11;;;;;;;7.50;4.90;;;18.50;54.50;;;;;;5075611;28;20863;-56
2023/06/16 02:02:43;;;;;;;6.30;4.70;;;18.40;54.60;;;;;;5075796;28;20428;-56
2023/06/16 02:05:11;;;;;;;6.77;4.97;;;18.40;54.70;;;;;;5075573;28;20433;-56
2023/06/16 02:07:43;;;;;;;5.17;4.63;;;18.30;54.90;;;;;;5075450;28;20818;-56
2023/06/16 02:10:12;;;;;;;5.30;4.83;;;18.20;54.90;;;;;;5075468;28;20436;-56
2023/06/16 02:12:39;;;;;;;10.37;4.90;;;18.20;55.10;;;;;;5075366;28;20456;-56
2023/06/16 02:15:09;;;;;;;10.10;5.00;;;18.20;55.30;;;;;;5075176;28;20452;-56
2023/06/16 02:17:35;;;;;;;7.53;4.80;;;18.20;55.30;;;;;;5074674;28;21014;-56
2023/06/16 02:20:05;;;;;;;5.60;5.10;;;18.20;55.60;;;;;;5075152;28;20477;-56
2023/06/16 02:22:32;;;;;;;6.90;5.23;;;18.20;55.60;;;;;;5075757;28;20448;-56
2023/06/16 02:25:00;;;;;;;7.60;5.40;;;18.10;55.60;;;;;;5074957;28;20491;-56
2023/06/16 02:27:27;;;;;;;7.83;5.40;;;18.10;55.80;;;;;;5074975;28;20472;-56
2023/06/16 02:29:53;;;;;;;6.40;5.80;;;18.10;55.90;;;;;;5074968;28;20815;-56
2023/06/16 02:32:21;;;;;;;7.73;6.13;;;18.00;56.00;;;;;;5074973;28;20518;-56
2023/06/16 02:34:48;;;;;;;6.03;5.40;;;18.00;56.10;;;;;;5075003;28;20453;-56
2023/06/16 02:37:15;;;;;;;6.37;5.77;;;18.00;56.20;;;;;;5074874;28;20472;-56
2023/06/16 02:39:41;;;;;;;5.90;5.00;;;18.00;56.40;;;;;;5074603;28;20448;-56
2023/06/16 02:42:09;;;;;;;8.73;6.13;;;18.00;56.40;;;;;;5074779;28;20483;-57
2023/06/16 02:44:35;;;;;;;8.30;5.63;;;17.90;56.30;;;;;;5074666;28;20449;-56
2023/06/16 02:47:03;;;;;;;6.47;5.80;;;17.90;56.40;;;;;;5074613;28;20467;-56
2023/06/16 02:49:31;;;;;;;7.03;5.50;;;17.90;56.50;;;;;;5074197;28;20491;-56
2023/06/16 02:51:58;;;;;;;6.70;5.27;;;17.80;56.70;;;;;;5074604;28;20452;-55
2023/06/16 02:54:25;;;;;;;7.20;5.67;;;17.80;56.80;;;;;;5074497;28;20484;-56
2023/06/16 02:56:51;;;;;;;7.80;5.70;;;17.80;56.90;;;;;;5074433;28;20503;-56
2023/06/16 02:59:18;;;;;;;7.33;5.63;;;17.80;57.00;;;;;;5074217;28;20444;-56
2023/06/16 03:01:45;;;;;;;6.90;5.73;;;17.80;57.00;;;;;;5074389;28;20448;-56
2023/06/16 03:04:11;;;;;;;10.07;6.07;;;17.80;57.10;;;;;;5074369;28;20449;-56
2023/06/16 03:06:44;;;;;;;7.00;5.20;;;17.80;57.20;;;;;;5074178;28;20471;-56
2023/06/16 03:09:11;;;;;;;8.40;5.40;;;17.70;57.20;;;;;;5073833;28;21004;-56
2023/06/16 03:11:38;;;;;;;6.00;5.17;;;17.70;57.40;;;;;;5074231;28;20449;-56
2023/06/16 03:14:06;;;;;;;11.10;5.70;;;17.70;57.50;;;;;;5073758;28;20942;-56
2023/06/16 03:16:32;;;;;;;5.87;5.30;;;17.70;57.60;;;;;;5073644;28;20480;-57
2023/06/16 03:18:59;;;;;;;12.60;5.53;;;17.70;57.60;;;;;;5074002;28;20448;-57
2023/06/16 03:21:26;;;;;;;7.10;5.40;;;17.70;57.50;;;;;;5073868;28;20498;-56
2023/06/16 03:23:54;;;;;;;9.20;4.40;;;17.70;57.50;;;;;;5073979;28;20834;-56
2023/06/16 03:26:22;;;;;;;7.13;5.40;;;17.60;57.40;;;;;;5073314;28;20468;-56
2023/06/16 03:28:49;;;;;;;10.33;5.17;;;17.50;57.30;;;;;;5073753;28;20490;-57
2023/06/16 03:31:15;;;;;;;6.97;5.07;;;17.50;57.40;;;;;;5074569;28;20445;-56
2023/06/16 03:33:42;;;;;;;6.67;4.97;;;17.40;57.80;;;;;;5073786;28;20449;-56
2023/06/16 03:36:09;;;;;;;8.20;4.90;;;17.40;57.30;;;;;;5073681;28;20469;-56
2023/06/16 03:38:36;;;;;;;8.20;5.23;;;17.30;57.40;;;;;;5073652;28;20444;-56
2023/06/16 03:41:04;;;;;;;5.70;4.83;;;17.40;57.60;;;;;;5074500;28;20454;-56
2023/06/16 03:43:30;;;;;;;7.73;6.57;;;17.40;57.90;;;;;;5073613;28;20498;-57
2023/06/16 03:45:57;;;;;;;10.43;5.73;;;17.40;58.10;;;;;;5073598;28;20452;-56
2023/06/16 03:48:24;;;;;;;5.83;5.33;;;17.40;58.30;;;;;;5073400;28;20488;-57
2023/06/16 03:50:52;;;;;;;7.30;5.90;;;17.30;58.30;;;;;;5073218;28;20498;-56
2023/06/16 03:53:19;;;;;;;7.23;5.30;;;17.40;59.00;;;;;;5073512;28;20459;-57
2023/06/16 03:55:47;;;;;;;9.07;5.60;;;17.30;58.40;;;;;;5073964;28;20448;-56
2023/06/16 03:58:15;;;;;;;5.63;5.13;;;17.30;58.50;;;;;;5073139;28;20444;-57
2023/06/16 04:00:43;;;;;;;10.63;5.93;;;17.30;58.70;;;;;;5073334;28;20531;-57
2023/06/16 04:03:09;;;;;;;8.53;5.90;;;17.30;58.80;;;;;;5073189;28;20967;-57
2023/06/16 04:05:36;;;;;;;8.97;6.17;;;17.30;58.70;;;;;;5073476;28;20444;-57
2023/06/16 04:08:03;;;;;;;6.07;5.57;;;17.20;58.60;;;;;;5073251;28;20562;-57
2023/06/16 04:10:30;;;;;;;10.23;6.00;;;17.20;58.80;;;;;;5073885;28;20456;-57
2023/06/16 04:12:57;;;;;;;11.90;5.00;;;17.20;58.80;;;;;;5073272;28;20451;-57
2023/06/16 04:15:25;;;;;;;7.03;5.57;;;17.20;59.10;;;;;;5073679;28;20448;-57
2023/06/16 04:17:51;;;;;;;10.20;5.77;;;17.30;59.30;;;;;;5073069;28;20477;-57
2023/06/16 04:20:18;;;;;;;7.37;5.83;;;17.30;59.30;;;;;;5072935;28;20452;-57
2023/06/16 04:22:45;;;;;;;8.50;5.50;;;17.30;59.50;;;;;;5073017;28;20480;-57
2023/06/16 04:25:12;;;;;;;5.80;5.17;;;17.30;59.50;;;;;;5073064;28;20460;-57
2023/06/16 04:27:39;;;;;;;13.80;6.10;;;17.40;59.60;;;;;;5072945;28;20566;-57
2023/06/16 04:30:07;;;;;;;10.87;5.27;;;17.40;59.70;;;;;;5072960;28;20484;-57
2023/06/16 04:32:36;;;;;;;6.57;5.63;;;17.40;59.70;;;;;;5072900;28;20444;-57
2023/06/16 04:35:04;;;;;;;11.20;5.10;;;17.40;59.90;;;;;;5072890;28;20448;-57
2023/06/16 04:37:31;;;;;;;8.40;6.10;;;17.50;60.10;;;;;;5079745;28;20853;-57
2023/06/16 04:39:57;;;;;;;8.70;5.80;;;17.40;60.40;;;;;;5097131;28;20448;-57
2023/06/16 04:42:24;;;;;;;7.37;5.77;;;17.50;60.60;;;;;;5097087;28;20961;-57
2023/06/16 04:44:51;;;;;;;8.10;6.27;;;17.60;60.70;;;;;;5097250;28;20444;-57
2023/06/16 04:47:17;;;;;;;6.13;5.63;;;17.60;61.00;;;;;;5097100;28;20463;-57
2023/06/16 04:49:46;;;;;;;8.50;6.00;;;17.60;61.40;;;;;;5096745;28;20545;-57
2023/06/16 04:52:12;;;;;;;7.07;6.00;;;17.60;61.70;;;;;;5097118;28;20477;-57
2023/06/16 04:54:40;;;;;;;7.87;5.87;;;17.60;62.00;;;;;;5097052;28;20490;-57
2023/06/16 04:57:07;;;;;;;9.90;5.43;;;17.60;62.70;;;;;;5096967;28;20510;-57
2023/06/16 04:59:35;;;;;;;7.60;5.47;;;17.70;63.10;;;;;;5097118;28;20451;-57
2023/06/16 05:02:01;;;;;;;9.93;5.70;;;17.70;63.50;;;;;;5097120;28;20481;-57
2023/06/16 05:04:28;;;;;;;8.10;6.80;;;17.70;64.00;;;;;;5097117;28;20451;-57
2023/06/16 05:06:56;;;;;;;7.80;6.40;;;17.60;64.20;;;;;;5097021;28;20482;-56
2023/06/16 05:09:23;;;;;;;8.93;6.37;;;17.70;63.50;;;;;;5096685;28;20486;-57
2023/06/16 05:11:50;;;;;;;8.80;6.43;;;17.70;63.50;;;;;;5096845;28;20463;-56
2023/06/16 05:14:17;;;;;;;9.37;6.60;;;17.70;62.60;;;;;;5097372;28;20452;-57
2023/06/16 05:16:43;;;;;;;7.40;6.70;;;17.80;64.10;;;;;;5096155;28;20487;-57
2023/06/16 05:19:10;;;;;;;7.57;6.73;;;17.80;63.80;;;;;;5096659;28;20443;-57
2023/06/16 05:21:37;;;;;;;7.53;6.80;;;18.00;63.90;;;;;;5096312;28;20447;-57
2023/06/16 05:24:05;;;;;;;8.93;6.73;;;18.10;63.80;;;;;;5096698;28;20454;-57
2023/06/16 05:26:32;;;;;;;14.80;7.27;;;18.20;63.90;;;;;;5096370;28;20815;-57
2023/06/16 05:28:59;;;;;;;10.43;6.30;;;18.30;64.20;;;;;;5096350;28;20506;-57
2023/06/16 05:31:25;;;;;;;6.97;6.10;;;18.40;64.30;;;;;;5096430;28;20447;-57
2023/06/16 05:33:54;;;;;;;7.80;7.00;;;18.50;64.10;;;;;;5096390;28;20444;-57
2023/06/16 05:36:24;;;;;;;9.03;6.10;;;18.60;65.20;;;;;;5095939;28;20830;-57
2023/06/16 05:38:51;;;;;;;8.47;7.10;;;18.60;65.10;;;;;;5096406;28;20444;-57
2023/06/16 05:41:23;;;;;;;7.10;6.50;;;18.70;65.30;;;;;;5096271;28;20451;-57
2023/06/16 05:43:50;;;;;;;10.60;7.17;;;18.80;66.00;;;;;;5095861;28;20918;-57
2023/06/16 05:46:17;;;;;;;11.00;6.77;;;18.90;65.20;;;;;;5096151;28;20898;-57
2023/06/16 05:48:44;;;;;;;9.60;6.40;;;19.00;65.40;;;;;;5095418;28;20475;-57
2023/06/16 05:51:11;;;;;;;11.10;6.20;;;19.10;64.60;;;;;;5095662;28;20950;-57
2023/06/16 05:53:38;;;;;;;7.03;6.33;;;19.20;64.40;;;;;;5095975;28;20444;-57
2023/06/16 05:56:05;;;;;;;11.57;6.53;;;19.30;63.60;;;;;;5095911;28;20470;-57
2023/06/16 05:58:35;;;;;;;6.80;5.50;;;19.40;62.70;;;;;;5095543;28;20821;-57
2023/06/16 06:01:03;;;;;;;7.00;5.40;;;19.50;62.40;;;;;;5095773;28;20485;-57
2023/06/16 06:03:29;;;;;;;6.70;5.00;;;19.60;61.70;;;;;;5095823;28;20439;-57
2023/06/16 06:05:56;;;;;;;9.53;5.80;;;19.70;61.80;;;;;;5095709;28;20821;-57
2023/06/16 06:08:27;;;;;;;10.87;6.73;;;19.90;61.50;;;;;;5095710;28;20475;-57
2023/06/16 06:10:53;;;;;;;6.93;5.37;;;20.00;61.00;;;;;;5088600;28;20438;-57
2023/06/16 06:13:20;;;;;;;6.53;5.87;;;20.20;60.20;;;;;;5075297;28;20444;-57
2023/06/16 06:15:48;;;;;;;5.50;5.00;;;20.30;59.70;;;;;;5075021;28;20494;-57
2023/06/16 06:18:16;;;;;;;6.30;5.03;;;20.40;59.10;;;;;;5075315;28;20436;-57
2023/06/16 06:20:46;;;;;;;8.80;5.00;;;20.60;59.10;;;;;;5075291;28;20475;-57
2023/06/16 06:23:13;;;;;;;5.00;4.53;;;20.70;58.90;;;;;;5075457;28;20436;-57
2023/06/16 06:25:42;;;;;;;6.83;4.27;;;20.90;58.20;;;;;;5074933;28;20436;-56
2023/06/16 06:28:08;;;;;;;9.90;5.10;;;21.10;54.70;;;;;;5074923;28;20503;-57
2023/06/16 06:30:36;;;;;;;6.20;4.70;;;21.30;52.60;;;;;;5075021;28;20491;-57
2023/06/16 06:33:04;;;;;;;4.20;3.80;;;21.60;52.70;;;;;;5074716;28;20449;-57
2023/06/16 06:35:31;;;;;;;6.80;5.10;;;21.90;52.80;;;;;;5074567;28;20956;-57
2023/06/16 06:37:57;;;;;;;6.27;4.33;;;22.20;52.70;;;;;;5074721;28;20477;-57
2023/06/16 06:40:24;;;;;;;5.20;4.60;;;22.50;52.00;;;;;;5074574;28;20863;-57
2023/06/16 06:42:51;;;;;;;9.47;4.40;;;22.70;51.50;;;;;;5074492;28;20589;-57
2023/06/16 06:45:17;;;;;;;6.83;5.00;;;22.90;50.70;;;;;;5074775;28;20487;-57
2023/06/16 06:47:44;;;;;;;4.40;3.80;;;23.20;50.30;;;;;;5074653;28;20469;-57
2023/06/16 06:50:12;;;;;;;9.83;4.67;;;23.40;49.90;;;;;;5074522;28;20479;-57
2023/06/16 06:52:40;;;;;;;7.03;4.90;;;23.50;49.30;;;;;;5074596;28;20444;-57
2023/06/16 06:55:07;;;;;;;9.03;4.50;;;23.70;49.00;;;;;;5074501;28;20515;-57
2023/06/16 06:57:34;;;;;;;7.30;4.10;;;23.90;48.40;;;;;;5074463;28;20460;-57
2023/06/16 07:00:00;;;;;;;5.80;4.90;;;24.10;47.70;;;;;;5073674;28;20448;-57
2023/06/16 07:02:27;;;;;;;6.30;5.67;;;24.20;47.10;;;;;;5074156;28;20502;-54
2023/06/16 07:04:54;;;;;;;5.70;4.27;;;24.30;47.40;;;;;;5074268;28;20449;-54
2023/06/16 07:07:22;;;;;;;6.73;4.67;;;24.50;46.70;;;;;;5074123;28;20522;-56
2023/06/16 07:09:49;;;;;;;4.90;4.37;;;24.60;46.50;;;;;;5074193;28;20484;-56
2023/06/16 07:12:16;;;;;;;4.70;3.80;;;24.80;46.40;;;;;;5074342;28;20448;-57
2023/06/16 07:14:44;;;;;;;4.33;4.00;;;24.90;46.20;;;;;;5074231;28;20444;-55
2023/06/16 07:17:11;;;;;;;5.13;4.60;;;25.10;46.00;;;;;;5073494;28;20472;-55
2023/06/16 07:19:37;;;;;;;11.10;4.20;;;25.20;45.60;;;;;;5073928;28;20515;-56
2023/06/16 07:22:05;;;;;;;5.37;3.53;;;25.40;45.30;;;;;;5073619;28;20552;-56
2023/06/16 07:24:33;;;;;;;4.60;3.90;;;25.50;44.90;;;;;;5073903;28;20543;-56
2023/06/16 07:27:01;;;;;;;4.83;3.90;;;25.60;44.10;;;;;;5073908;28;20468;-56
2023/06/16 07:29:28;;;;;;;6.53;4.20;;;25.80;44.00;;;;;;5073646;28;20484;-56
2023/06/16 07:31:55;;;;;;;4.33;3.90;;;25.90;43.70;;;;;;5073857;28;20453;-56
2023/06/16 07:34:21;;;;;;;8.40;4.13;;;26.00;43.40;;;;;;5073833;28;20817;-56
2023/06/16 07:36:48;;;;;;;3.83;3.43;;;26.20;43.10;;;;;;5073661;28;20476;-56
2023/06/16 07:39:15;;;;;;;5.70;4.20;;;26.30;43.10;;;;;;5073533;28;20923;-56
2023/06/16 07:41:43;;;;;;;6.13;4.00;;;26.50;43.70;;;;;;5073461;28;20456;-56
2023/06/16 07:44:10;;;;;;;4.83;3.90;;;26.70;42.80;;;;;;5073345;28;20456;-56
2023/06/16 07:46:38;;;;;;;5.30;4.10;;;26.80;42.60;;;;;;5073260;28;21044;-56
2023/06/16 07:49:04;;;;;;;5.30;4.80;;;26.90;42.20;;;;;;5073145;28;20832;-56
2023/06/16 07:51:31;;;;;;;3.77;3.47;;;27.10;41.50;;;;;;5073490;28;20448;-56
2023/06/16 07:53:58;;;;;;;6.37;3.90;;;27.30;41.00;;;;;;5073573;28;20503;-56
2023/06/16 07:56:24;;;;;;;6.33;4.63;;;27.40;40.90;;;;;;5073394;28;20475;-56
2023/06/16 07:58:52;;;;;;;5.37;4.40;;;27.50;39.50;;;;;;5073415;28;20440;-56
2023/06/16 08:01:19;;;;;;;10.87;3.87;;;27.60;38.50;;;;;;5073603;28;20440;-56
2023/06/16 08:03:46;;;;;;;6.43;3.80;;;27.70;37.60;;;;;;5074021;28;20452;-56
2023/06/16 08:06:13;;;;;;;10.13;4.00;;;27.90;36.70;;;;;;5073284;28;20817;-56
2023/06/16 08:08:40;;;;;;;5.00;4.40;;;28.00;36.80;;;;;;5073354;28;20460;-56
2023/06/16 08:11:07;;;;;;;6.90;4.57;;;28.10;35.90;;;;;;5073640;28;20489;-56
2023/06/16 08:13:34;;;;;;;6.13;3.60;;;28.20;35.40;;;;;;5073404;28;20484;-56
2023/06/16 08:16:02;;;;;;;4.70;4.07;;;28.40;35.50;;;;;;5073384;28;20476;-56
2023/06/16 08:18:29;;;;;;;6.60;3.67;;;28.50;35.00;;;;;;5074531;28;20453;-56
2023/06/16 08:20:56;;;;;;;5.23;3.97;;;28.70;35.50;;;;;;5073685;28;20449;-56
2023/06/16 08:23:22;;;;;;;3.90;3.60;;;28.90;35.40;;;;;;5073439;28;20471;-56
2023/06/16 08:25:50;;;;;;;3.67;3.37;;;29.10;35.60;;;;;;5073348;28;20518;-56
2023/06/16 08:28:17;;;;;;;4.50;4.10;;;29.30;35.80;;;;;;5073376;28;20455;-56
2023/06/16 08:30:44;;;;;;;4.90;4.23;;;29.40;35.60;;;;;;5073332;28;20476;-57
2023/06/16 08:33:12;;;;;;;4.03;3.63;;;29.60;35.20;;;;;;5073113;28;20475;-56
2023/06/16 08:35:38;;;;;;;4.10;3.73;;;29.80;33.80;;;;;;5073335;28;20448;-56
2023/06/16 08:38:06;;;;;;;6.07;4.10;;;29.90;33.00;;;;;;5072795;28;20469;-56
2023/06/16 08:40:33;;;;;;;9.93;4.43;;;30.10;32.90;;;;;;5073324;28;20525;-56
2023/06/16 08:43:05;;;;;;;3.93;3.60;;;30.30;32.90;;;;;;5073072;28;20452;-57
2023/06/16 08:45:33;;;;;;;4.60;3.40;;;30.50;32.50;;;;;;5073101;28;20483;-56
2023/06/16 08:48:00;;;;;;;4.53;3.60;;;30.60;32.10;;;;;;5072701;28;20841;-56
2023/06/16 08:50:29;;;;;;;3.70;3.40;;;30.80;31.80;;;;;;5072670;28;20516;-57
2023/06/16 08:52:58;;;;;;;4.80;3.57;;;31.10;31.60;;;;;;5073014;28;20448;-57
2023/06/16 08:55:27;;;;;;;4.43;4.07;;;31.30;31.50;;;;;;5072817;28;20444;-57
2023/06/16 08:57:54;;;;;;;4.03;3.63;;;31.40;30.90;;;;;;5072825;28;20525;-56
2023/06/16 09:00:22;;;;;;;5.77;4.30;;;31.60;30.90;;;;;;5072815;28;20443;-56
2023/06/16 09:02:50;;;;;;;3.90;3.60;;;31.80;30.50;;;;;;5072858;28;20448;-56
2023/06/16 09:05:17;;;;;;;4.13;3.83;;;31.90;30.00;;;;;;5072398;28;20826;-57
2023/06/16 09:07:46;;;;;;;4.60;4.20;;;32.00;29.60;;;;;;5072670;28;20939;-57
2023/06/16 09:10:13;;;;;;;4.50;4.20;;;32.10;29.30;;;;;;5072766;28;20566;-57
2023/06/16 09:12:40;;;;;;;3.67;3.37;;;32.30;28.50;;;;;;5072811;28;20444;-57
2023/06/16 09:15:09;;;;;;;6.00;3.70;;;32.40;28.30;;;;;;5072770;28;20451;-57
2023/06/16 09:17:37;;;;;;;8.40;4.30;;;32.60;28.10;;;;;;5072289;28;20472;-57
2023/06/16 09:20:06;;;;;;;5.13;4.27;;;32.80;27.40;;;;;;5072264;28;21056;-57
2023/06/16 09:22:33;;;;;;;5.30;4.00;;;33.00;27.40;;;;;;5072316;28;20946;-56
2023/06/16 09:25:05;;;;;;;4.07;3.57;;;33.10;25.40;;;;;;5074993;28;20980;-56
2023/06/16 09:27:43;;;;;;;4.50;3.90;;;33.20;25.10;;;;;;5076462;28;20460;-56
2023/06/16 09:30:12;;;;;;;4.00;3.70;;;33.40;25.00;;;;;;5076105;28;20466;-57
2023/06/16 09:32:39;;;;;;;4.03;3.73;;;33.60;25.20;;;;;;5077331;28;20467;-57
2023/06/16 09:35:17;;;;;;;4.87;4.40;;;33.80;25.20;;;;;;5076930;28;20501;-57
2023/06/16 09:37:45;;;;;;;4.20;3.80;;;33.90;24.20;;;;;;5076639;28;20814;-57
2023/06/16 09:40:14;;;;;;;4.37;3.57;;;34.00;23.90;;;;;;5075938;28;20462;-57
2023/06/16 09:42:42;;;;;;;4.10;3.70;;;34.00;24.70;;;;;;5075982;28;20452;-57
2023/06/16 09:45:10;;;;;;;4.37;4.00;;;34.20;24.30;;;;;;5076235;28;20451;-57
2023/06/16 09:47:37;;;;;;;4.10;3.80;;;34.30;24.00;;;;;;5075925;28;20464;-56
2023/06/16 09:50:06;;;;;;;5.13;4.43;;;34.50;23.70;;;;;;5075324;28;20818;-57
2023/06/16 09:52:33;;;;;;;4.93;4.53;;;34.60;23.00;;;;;;5075754;28;20452;-57
2023/06/16 09:55:01;;;;;;;7.30;4.50;;;34.60;22.90;;;;;;5076057;28;20510;-57
2023/06/16 09:57:29;;;;;;;4.40;4.00;;;34.80;23.50;;;;;;5075689;28;20899;-56
2023/06/16 09:59:56;;;;;;;4.55;4.00;;;34.90;20.80;;;;;;5075007;28;20446;-56
2023/06/16 10:02:24;;;;;;;4.80;4.10;;;34.80;20.40;;;;;;5075559;28;20230;-57
2023/06/16 10:04:54;;;;;;;4.30;4.00;;;35.00;20.90;;;;;;5075597;28;20456;-57
2023/06/16 10:07:21;;;;;;;4.33;4.03;;;35.10;20.90;;;;;;5075206;28;20464;-57
2023/06/16 10:09:50;;;;;;;7.53;4.03;;;35.30;21.20;;;;;;5075212;28;20477;-57
2023/06/16 10:12:19;;;;;;;4.63;4.23;;;35.60;21.30;;;;;;5075455;28;20550;-57
2023/06/16 10:14:48;;;;;;;4.63;4.33;;;35.90;20.40;;;;;;5075290;28;20436;-57
2023/06/16 10:17:18;;;;;;;4.00;3.70;;;36.20;19.70;;;;;;5074620;28;20563;-56
2023/06/16 10:19:49;;;;;;;4.17;3.87;;;36.50;20.90;;;;;;5075514;28;20205;-55
2023/06/16 10:22:17;;;;;;;4.30;4.00;;;36.90;20.30;;;;;;5075235;28;20221;-54
2023/06/16 10:24:44;;;;;;;5.47;4.13;;;37.30;19.90;;;;;;5074911;28;20204;-55
2023/06/16 10:27:13;;;;;;;5.22;4.03;;;37.80;19.80;;;;;;5075028;28;20243;-54
2023/06/16 10:29:41;;;;;;;7.32;4.75;;;38.30;19.90;;;;;;5075053;28;20567;-54
2023/06/16 10:32:10;;;;;;;5.50;4.53;;;38.80;20.00;;;;;;5074622;28;20217;-54
2023/06/16 10:34:47;;;;;;;5.07;3.58;;;39.30;19.50;;;;;;5074920;28;20208;-54
2023/06/16 10:37:15;;;;;;;4.63;4.18;;;39.80;18.80;;;;;;5074700;28;20267;-55
2023/06/16 10:39:43;;;;;;;5.05;3.85;;;40.40;18.00;;;;;;5074589;28;20205;-55
2023/06/16 10:42:12;;;;;;;4.40;4.10;;;40.90;17.40;;;;;;5075389;28;20202;-55
2023/06/16 10:44:39;;;;;;;5.32;4.30;;;41.40;17.20;;;;;;5074833;28;20209;-55
2023/06/16 10:47:30;;;;;;;4.53;4.22;;;41.90;16.40;;;;;;5074677;28;20308;-55
2023/06/16 10:49:58;;;;;;;5.05;4.30;;;42.00;15.80;;;;;;5066474;28;20220;-55
2023/06/16 10:52:33;;;;;;;4.50;4.20;;;42.10;16.10;;;;;;5074635;28;20255;-55
2023/06/16 10:55:17;;;;;;;4.82;4.30;;;42.20;16.40;;;;;;5074675;28;20201;-55
2023/06/16 10:57:46;;;;;;;6.45;5.10;;;42.40;16.00;;;;;;5074486;28;20222;-55
2023/06/16 11:00:16;;;;;;;5.70;5.20;;;42.70;15.60;;;;;;5074097;28;20685;-55
2023/06/16 11:02:51;;;;;;;6.13;4.50;;;43.00;15.40;;;;;;5074432;28;20255;-55
2023/06/16 11:05:22;;;;;;;5.72;4.93;;;43.00;15.20;;;;;;5074430;28;20189;-55
2023/06/16 11:08:12;;;;;;;4.78;4.38;;;43.00;15.40;;;;;;5073838;28;20772;-55
2023/06/16 11:10:48;;;;;;;5.90;4.57;;;43.10;15.20;;;;;;5073977;28;20737;-55
2023/06/16 11:13:15;;;;;;;4.75;4.35;;;43.10;15.20;;;;;;5074260;28;20232;-55
2023/06/16 11:15:43;;;;;;;4.78;4.32;;;42.90;15.40;;;;;;5073915;28;20220;-55
2023/06/16 11:18:12;;;;;;;6.65;4.78;;;42.70;15.60;;;;;;5073993;28;20256;-55
2023/06/16 11:20:39;;;;;;;9.90;5.03;;;42.60;15.80;;;;;;5073671;28;20198;-55
2023/06/16 11:23:06;;;;;;;6.35;5.00;;;42.60;14.60;;;;;;5074173;28;20202;-55
2023/06/16 11:25:33;;;;;;;5.65;4.82;;;42.50;14.80;;;;;;5074130;28;20209;-56
2023/06/16 11:28:00;;;;;;;5.30;4.88;;;42.40;15.30;;;;;;5074215;28;20602;-56
2023/06/16 11:30:28;;;;;;;6.82;4.80;;;42.40;15.60;;;;;;5074670;28;20218;-55
2023/06/16 11:32:57;;;;;;;4.88;4.47;;;42.50;16.20;;;;;;5074632;28;20205;-56
2023/06/16 11:35:31;;;;;;;5.10;4.60;;;42.90;15.60;;;;;;5074245;28;20208;-56
2023/06/16 11:37:58;;;;;;;4.72;4.32;;;43.40;14.90;;;;;;5074799;28;20256;-56
2023/06/16 11:40:27;;;;;;;4.70;4.30;;;43.90;14.60;;;;;;5074252;28;20208;-56
2023/06/16 11:42:57;;;;;;;4.50;4.10;;;44.40;14.70;;;;;;5073927;28;20552;-56
2023/06/16 11:45:25;;;;;;;4.97;4.55;;;44.90;14.20;;;;;;5073997;28;20194;-56
2023/06/16 11:47:51;;;;;;;4.30;3.90;;;45.40;13.20;;;;;;5073413;28;20253;-56
2023/06/16 11:50:18;;;;;;;7.05;5.13;;;45.70;13.20;;;;;;5073076;28;20675;-55
2023/06/16 11:52:47;;;;;;;4.95;4.50;;;46.20;12.90;;;;;;5073534;28;20671;-56
2023/06/16 11:55:14;;;;;;;5.45;4.10;;;46.50;12.80;;;;;;5073621;28;20228;-56
2023/06/16 11:57:40;;;;;;;7.13;4.72;;;46.90;12.80;;;;;;5073437;28;20221;-56
2023/06/16 12:00:09;;;;;;;5.25;4.15;;;47.20;13.40;;;;;;5074233;28;20670;-55
2023/06/16 12:02:37;;;;;;;4.97;4.30;;;47.60;12.60;;;;;;5073448;28;20225;-56
2023/06/16 12:05:05;;;;;;;5.47;4.50;;;47.70;11.80;;;;;;5073496;28;20201;-56
2023/06/16 12:07:33;;;;;;;4.32;3.92;;;47.80;12.00;;;;;;5073491;28;20621;-56
2023/06/16 12:10:04;;;;;;;4.65;4.25;;;47.90;12.10;;;;;;5073484;28;20205;-56
2023/06/16 12:12:31;;;;;;;5.63;4.30;;;48.10;12.30;;;;;;5073601;28;20197;-56
2023/06/16 12:14:58;;;;;;;5.45;4.38;;;48.30;12.20;;;;;;5073752;28;20224;-56
2023/06/16 12:17:25;;;;;;;4.97;3.90;;;48.50;11.70;;;;;;5073162;28;20346;-56
2023/06/16 12:19:52;;;;;;;4.80;4.32;;;48.90;11.30;;;;;;5073525;28;20288;-57
2023/06/16 12:22:21;;;;;;;3.90;3.70;;;49.00;11.00;;;;;;5073364;28;20220;-56
2023/06/16 12:24:48;;;;;;;4.00;3.63;;;49.30;10.90;;;;;;5073321;28;20224;-56
2023/06/16 12:27:24;;;;;;;4.10;3.80;;;49.60;11.00;;;;;;5073159;28;20225;-56
2023/06/16 12:29:57;;;;;;;5.03;3.75;;;49.90;11.10;;;;;;5073811;28;20193;-56
2023/06/16 12:32:29;;;;;;;3.95;3.50;;;50.00;10.50;;;;;;5073440;28;20292;-56
2023/06/16 12:34:56;;;;;;;4.15;3.75;;;50.20;10.20;;;;;;5073096;28;20186;-56
2023/06/16 12:37:26;;;;;;;3.75;3.45;;;50.30;10.30;;;;;;5072969;28;20225;-56
2023/06/16 12:40:03;;;;;;;3.53;3.30;;;50.20;9.90;;;;;;5073612;28;20205;-57
2023/06/16 12:42:31;;;;;;;4.00;3.70;;;50.00;10.20;;;;;;5073177;28;20205;-56
2023/06/16 12:45:01;;;;;;;4.47;3.78;;;50.00;9.40;;;;;;5073116;28;20551;-56
2023/06/16 12:47:29;;;;;;;6.03;4.13;;;50.00;9.80;;;;;;5072527;28;20221;-57
2023/06/16 12:49:57;;;;;;;4.47;3.60;;;50.10;10.30;;;;;;5072795;28;20205;-55